createdAt,value
2018-12-16T00:01:32.099Z,30.20
2018-12-16T00:03:59.898Z,27.53
2018-12-16T00:06:27.651Z,31.43
2018-12-16T00:08:55.426Z,28.93
2018-12-16T00:11:23.217Z,30.63
2018-12-16T00:13:50.936Z,30.07
2018-12-16T00:16:18.661Z,31.00
2018-12-16T00:18:47.109Z,31.03
2018-12-16T00:21:14.856Z,30.37
2018-12-16T00:23:42.687Z,30.67
2018-12-16T00:26:10.458Z,32.10
2018-12-16T00:28:38.213Z,32.00
2018-12-16T00:31:05.970Z,29.53
2018-12-16T00:33:33.712Z,30.93
2018-12-16T00:36:01.478Z,28.27
2018-12-16T00:38:29.255Z,30.60
2018-12-16T00:40:57.050Z,30.60
2018-12-16T00:43:24.817Z,32.17
2018-12-16T00:45:52.589Z,31.33
2018-12-16T00:48:20.353Z,31.57
2018-12-16T00:50:48.157Z,28.73
2018-12-16T00:53:15.933Z,27.63
2018-12-16T00:55:43.759Z,29.93
2018-12-16T00:58:11.507Z,29.27
2018-12-16T01:00:39.765Z,28.47
2018-12-16T01:03:07.509Z,27.77
2018-12-16T01:05:35.273Z,29.10
2018-12-16T01:08:03.099Z,29.10
2018-12-16T01:10:31.801Z,29.13
2018-12-16T01:12:59.604Z,29.30
2018-12-16T01:15:27.358Z,29.97
2018-12-16T01:17:55.181Z,31.47
2018-12-16T01:20:24.044Z,30.00
2018-12-16T01:22:51.841Z,32.03
2018-12-16T01:25:19.639Z,31.37
2018-12-16T01:27:47.387Z,27.03
2018-12-16T01:30:15.177Z,31.10
2018-12-16T01:32:42.916Z,31.53
2018-12-16T01:35:10.713Z,30.00
2018-12-16T01:37:38.488Z,31.63
2018-12-16T01:40:06.904Z,31.03
2018-12-16T01:42:34.691Z,29.90
2018-12-16T01:45:02.583Z,28.63
2018-12-16T01:47:30.308Z,25.40
2018-12-16T01:49:58.103Z,30.67
2018-12-16T01:52:25.944Z,30.50
2018-12-16T01:54:53.643Z,30.10
2018-12-16T01:57:21.429Z,31.70
2018-12-16T01:59:49.256Z,28.93
2018-12-16T02:02:16.984Z,24.97
2018-12-16T02:04:44.802Z,26.50
2018-12-16T02:07:12.613Z,30.80
2018-12-16T02:09:40.528Z,28.77
2018-12-16T02:12:08.301Z,31.97
2018-12-16T02:14:36.134Z,29.83
2018-12-16T02:17:03.931Z,26.30
2018-12-16T02:19:31.704Z,28.10
2018-12-16T02:21:59.448Z,25.90
2018-12-16T02:24:27.195Z,30.13
2018-12-16T02:26:54.981Z,28.23
2018-12-16T02:29:22.692Z,27.63
2018-12-16T02:31:50.446Z,33.70
2018-12-16T02:34:18.181Z,27.77
2018-12-16T02:36:46.633Z,31.37
2018-12-16T02:39:14.518Z,27.90
2018-12-16T02:41:42.285Z,28.53
2018-12-16T02:44:10.031Z,29.03
2018-12-16T02:46:37.818Z,26.70
2018-12-16T02:49:05.614Z,27.83
2018-12-16T02:51:33.421Z,30.13
2018-12-16T02:54:01.788Z,32.67
2018-12-16T02:56:29.970Z,30.27
2018-12-16T02:58:57.732Z,27.07
2018-12-16T03:01:25.648Z,29.90
2018-12-16T03:03:53.439Z,31.00
2018-12-16T03:06:21.245Z,29.00
2018-12-16T03:08:49.939Z,29.53
2018-12-16T03:11:17.735Z,30.83
2018-12-16T03:13:45.494Z,30.30
2018-12-16T03:16:13.257Z,29.53
2018-12-16T03:18:41.065Z,30.60
2018-12-16T03:21:08.802Z,30.13
2018-12-16T03:23:36.563Z,29.23
2018-12-16T03:26:04.417Z,29.50
2018-12-16T03:28:32.214Z,29.87
2018-12-16T03:31:00.753Z,28.63
2018-12-16T03:33:28.522Z,27.53
2018-12-16T03:35:56.263Z,30.77
2018-12-16T03:38:24.036Z,30.10
2018-12-16T03:40:51.883Z,27.13
2018-12-16T03:43:19.690Z,27.47
2018-12-16T03:45:47.450Z,31.17
2018-12-16T03:48:15.754Z,27.60
2018-12-16T03:50:43.505Z,32.17
2018-12-16T03:53:11.317Z,32.60
2018-12-16T03:55:39.056Z,32.77
2018-12-16T03:58:06.848Z,28.27
2018-12-16T04:00:34.990Z,29.57
2018-12-16T04:03:03.463Z,28.67
2018-12-16T04:05:31.319Z,31.43
2018-12-16T04:07:59.033Z,34.63
2018-12-16T04:10:26.799Z,31.43
2018-12-16T04:12:54.539Z,33.80
2018-12-16T04:15:22.296Z,36.73
2018-12-16T04:17:50.061Z,33.33
2018-12-16T04:20:17.830Z,37.90
2018-12-16T04:22:45.623Z,32.57
2018-12-16T04:25:13.460Z,39.07
2018-12-16T04:27:41.220Z,34.47
2018-12-16T04:30:09.140Z,35.63
2018-12-16T04:32:36.887Z,37.53
2018-12-16T04:35:05.379Z,35.43
2018-12-16T04:37:33.218Z,34.80
2018-12-16T04:40:01.059Z,36.70
2018-12-16T04:42:28.904Z,39.70
2018-12-16T04:44:56.662Z,34.13
2018-12-16T04:47:24.400Z,35.43
2018-12-16T04:49:52.233Z,38.40
2018-12-16T04:52:20.020Z,40.63
2018-12-16T04:54:47.859Z,39.97
2018-12-16T04:57:15.639Z,39.03
2018-12-16T04:59:43.392Z,39.90
2018-12-16T05:02:11.195Z,36.03
2018-12-16T05:04:39.000Z,38.20
2018-12-16T05:07:06.728Z,37.33
2018-12-16T05:09:34.684Z,37.20
2018-12-16T05:12:02.456Z,34.80
2018-12-16T05:14:30.491Z,44.03
2018-12-16T05:16:58.321Z,36.37
2018-12-16T05:19:26.129Z,42.27
2018-12-16T05:21:53.872Z,37.43
2018-12-16T05:24:21.633Z,35.30
2018-12-16T05:26:49.420Z,32.37
2018-12-16T05:29:17.229Z,41.47
2018-12-16T05:31:44.994Z,36.47
2018-12-16T05:34:12.798Z,36.83
2018-12-16T05:36:40.768Z,40.33
2018-12-16T05:39:23.325Z,35.07
2018-12-16T05:41:51.096Z,38.83
2018-12-16T05:44:18.953Z,37.13
2018-12-16T05:46:46.800Z,32.97
2018-12-16T05:49:14.538Z,34.03
2018-12-16T05:51:42.275Z,35.93
2018-12-16T05:54:10.030Z,35.70
2018-12-16T05:56:37.788Z,36.53
2018-12-16T05:59:05.612Z,38.17
2018-12-16T06:01:34.381Z,32.00
2018-12-16T06:04:02.109Z,35.43
2018-12-16T06:06:29.893Z,34.30
2018-12-16T06:08:57.690Z,38.17
2018-12-16T06:11:25.474Z,35.63
2018-12-16T06:13:53.355Z,39.40
2018-12-16T06:16:21.124Z,37.83
2018-12-16T06:18:48.951Z,36.37
2018-12-16T06:21:17.801Z,36.67
2018-12-16T06:23:45.549Z,33.50
2018-12-16T06:26:13.555Z,34.33
2018-12-16T06:28:41.657Z,35.13
2018-12-16T06:31:09.403Z,39.80
2018-12-16T06:33:37.714Z,36.20
2018-12-16T06:36:05.462Z,33.23
2018-12-16T06:38:34.681Z,35.97
2018-12-16T06:41:02.493Z,37.83
2018-12-16T06:43:30.270Z,33.17
2018-12-16T06:45:58.062Z,31.77
2018-12-16T06:48:25.849Z,34.50
2018-12-16T06:50:53.806Z,37.23
2018-12-16T06:53:21.760Z,37.13
2018-12-16T06:55:49.570Z,36.80
2018-12-16T06:58:17.309Z,34.93
2018-12-16T07:00:45.127Z,36.30
2018-12-16T07:03:12.929Z,36.83
2018-12-16T07:05:40.838Z,34.10
2018-12-16T07:08:08.631Z,35.43
2018-12-16T07:10:36.524Z,36.13
2018-12-16T07:13:04.389Z,36.83
2018-12-16T07:15:32.436Z,35.40
2018-12-16T07:18:00.375Z,36.97
2018-12-16T07:20:28.543Z,31.83
2018-12-16T07:22:56.453Z,33.83
2018-12-16T07:25:24.274Z,37.27
2018-12-16T07:27:52.041Z,34.13
2018-12-16T07:30:19.822Z,35.80
2018-12-16T07:32:47.652Z,34.50
2018-12-16T07:35:15.678Z,34.00
2018-12-16T07:37:43.489Z,36.73
2018-12-16T07:40:11.270Z,30.93
2018-12-16T07:42:39.130Z,34.50
2018-12-16T07:45:07.623Z,33.23
2018-12-16T07:47:35.416Z,36.63
2018-12-16T07:50:03.549Z,35.67
2018-12-16T07:52:31.336Z,37.17
2018-12-16T07:54:59.125Z,37.70
2018-12-16T07:57:26.914Z,35.20
2018-12-16T07:59:54.644Z,35.00
2018-12-16T08:02:22.640Z,38.90
2018-12-16T08:04:50.670Z,35.27
2018-12-16T08:07:18.401Z,36.70
2018-12-16T08:09:46.716Z,40.67
2018-12-16T08:12:14.540Z,38.47
2018-12-16T08:14:42.333Z,36.70
2018-12-16T08:17:10.185Z,36.53
2018-12-16T08:19:37.966Z,35.67
2018-12-16T08:22:05.783Z,41.50
2018-12-16T08:24:33.597Z,40.20
2018-12-16T08:27:01.929Z,39.40
2018-12-16T08:29:29.862Z,38.33
2018-12-16T08:31:59.958Z,38.87
2018-12-16T08:34:27.753Z,40.57
2018-12-16T08:36:55.489Z,39.10
2018-12-16T08:39:23.247Z,40.43
2018-12-16T08:41:51.093Z,39.67
2018-12-16T08:44:18.976Z,41.57
2018-12-16T08:46:47.593Z,38.03
2018-12-16T08:49:15.344Z,36.43
2018-12-16T08:51:43.130Z,44.33
2018-12-16T08:54:10.986Z,40.70
2018-12-16T08:56:38.798Z,40.77
2018-12-16T08:59:06.574Z,38.30
2018-12-16T09:01:34.301Z,41.10
2018-12-16T09:04:02.150Z,42.67
2018-12-16T09:06:30.041Z,38.77
2018-12-16T09:08:58.296Z,37.33
2018-12-16T09:11:26.064Z,38.90
2018-12-16T09:13:53.953Z,42.47
2018-12-16T09:16:21.761Z,38.73
2018-12-16T09:18:49.496Z,43.03
2018-12-16T09:21:17.518Z,37.27
2018-12-16T09:23:45.288Z,40.63
2018-12-16T09:26:13.118Z,36.23
2018-12-16T09:28:40.918Z,39.03
2018-12-16T09:31:09.570Z,38.57
2018-12-16T09:33:38.226Z,37.60
2018-12-16T09:36:06.038Z,39.50
2018-12-16T09:38:33.852Z,41.00
2018-12-16T09:41:01.667Z,40.43
2018-12-16T09:43:29.456Z,38.80
2018-12-16T09:45:57.246Z,37.63
2018-12-16T09:48:25.053Z,37.00
2018-12-16T09:50:52.887Z,42.50
2018-12-16T09:53:20.699Z,36.40
2018-12-16T09:55:48.516Z,37.67
2018-12-16T09:58:16.319Z,38.67
2018-12-16T10:00:44.058Z,38.13
2018-12-16T10:03:13.884Z,36.20
2018-12-16T10:05:41.616Z,38.80
2018-12-16T10:08:09.389Z,45.80
2018-12-16T10:10:37.152Z,39.27
2018-12-16T10:13:04.932Z,41.17
2018-12-16T10:15:32.753Z,40.07
2018-12-16T10:18:00.650Z,37.33
2018-12-16T10:20:28.484Z,39.63
2018-12-16T10:22:56.207Z,41.00
2018-12-16T10:25:24.560Z,39.73
2018-12-16T10:27:52.418Z,40.33
2018-12-16T10:30:21.475Z,38.23
2018-12-16T10:32:49.225Z,40.17
2018-12-16T10:35:16.939Z,39.63
2018-12-16T10:37:44.715Z,43.53
2018-12-16T10:40:12.487Z,45.47
2018-12-16T10:42:40.321Z,37.40
2018-12-16T10:45:09.305Z,40.53
2018-12-16T10:47:37.235Z,42.97
2018-12-16T10:50:06.071Z,43.73
2018-12-16T10:52:33.848Z,38.10
2018-12-16T10:55:01.653Z,37.37
2018-12-16T10:57:29.501Z,42.23
2018-12-16T10:59:58.327Z,39.57
2018-12-16T11:02:26.129Z,51.30
2018-12-16T11:04:53.985Z,41.87
2018-12-16T11:07:21.760Z,40.90
2018-12-16T11:09:49.837Z,48.07
2018-12-16T11:12:17.692Z,44.13
2018-12-16T11:14:47.874Z,43.13
2018-12-16T11:17:15.890Z,40.47
2018-12-16T11:19:43.660Z,41.87
2018-12-16T11:22:11.552Z,46.67
2018-12-16T11:24:39.358Z,50.07
2018-12-16T11:27:07.202Z,47.77
2018-12-16T11:29:35.025Z,49.07
2018-12-16T11:32:02.842Z,42.83
2018-12-16T11:34:30.641Z,42.53
2018-12-16T11:36:58.455Z,48.23
2018-12-16T11:39:26.238Z,43.70
2018-12-16T11:41:54.150Z,44.57
2018-12-16T11:44:22.033Z,46.83
2018-12-16T11:46:49.779Z,42.67
2018-12-16T11:49:17.641Z,43.23
2018-12-16T11:51:45.586Z,49.70
2018-12-16T11:54:13.387Z,44.57
2018-12-16T11:56:41.149Z,41.23
2018-12-16T11:59:08.917Z,39.53
2018-12-16T12:01:36.862Z,37.87
2018-12-16T12:04:05.624Z,42.53
2018-12-16T12:06:33.714Z,37.60
2018-12-16T12:09:01.541Z,37.60
2018-12-16T12:11:29.264Z,42.03
2018-12-16T12:13:57.030Z,35.57
2018-12-16T12:16:25.104Z,40.23
2018-12-16T12:19:01.221Z,38.20
2018-12-16T12:21:29.139Z,43.83
2018-12-16T12:23:57.020Z,35.60
2018-12-16T12:26:24.851Z,36.10
2018-12-16T12:28:52.585Z,33.07
2018-12-16T12:31:20.418Z,35.90
2018-12-16T12:33:48.196Z,37.37
2018-12-16T12:36:15.980Z,40.50
2018-12-16T12:38:43.751Z,41.07
2018-12-16T12:41:11.650Z,31.87
2018-12-16T12:43:39.460Z,40.00
2018-12-16T12:46:07.216Z,42.43
2018-12-16T12:48:35.138Z,41.17
2018-12-16T12:51:03.405Z,37.50
2018-12-16T12:53:36.262Z,39.40
2018-12-16T12:56:04.080Z,39.60
2018-12-16T12:58:31.953Z,35.93
2018-12-16T13:00:59.782Z,31.00
2018-12-16T13:03:27.575Z,40.20
2018-12-16T13:05:55.426Z,33.30
2018-12-16T13:08:23.188Z,36.40
2018-12-16T13:10:50.997Z,39.83
2018-12-16T13:13:18.789Z,42.83
2018-12-16T13:15:46.491Z,43.10
2018-12-16T13:18:14.249Z,32.93
2018-12-16T13:20:42.005Z,37.30
2018-12-16T13:23:09.770Z,34.23
2018-12-16T13:25:48.753Z,38.50
2018-12-16T13:28:16.559Z,39.63
2018-12-16T13:30:44.341Z,43.20
2018-12-16T13:33:12.940Z,40.63
2018-12-16T13:35:40.700Z,36.10
2018-12-16T13:38:08.463Z,44.10
2018-12-16T13:40:36.231Z,37.77
2018-12-16T13:43:05.049Z,45.37
2018-12-16T13:45:32.895Z,39.23
2018-12-16T13:48:00.728Z,41.57
2018-12-16T13:50:28.958Z,37.70
2018-12-16T13:52:56.809Z,44.27
2018-12-16T13:55:24.549Z,40.57
2018-12-16T13:57:52.642Z,42.83
2018-12-16T14:00:20.462Z,37.90
2018-12-16T14:02:49.926Z,48.27
2018-12-16T14:05:17.969Z,43.33
2018-12-16T14:07:45.722Z,42.87
2018-12-16T14:10:13.570Z,41.30
2018-12-16T14:12:41.294Z,40.97
2018-12-16T14:15:09.861Z,46.57
2018-12-16T14:17:43.286Z,43.43
2018-12-16T14:20:11.089Z,41.70
2018-12-16T14:22:39.467Z,45.97
2018-12-16T14:25:13.820Z,46.10
2018-12-16T14:27:43.420Z,47.40
2018-12-16T14:30:11.646Z,56.50
2018-12-16T14:33:05.708Z,44.20
2018-12-16T14:35:39.399Z,45.03
2018-12-16T14:38:10.124Z,43.63
2018-12-16T14:40:38.533Z,46.47
2018-12-16T14:43:06.294Z,41.33
2018-12-16T14:45:34.028Z,54.60
2018-12-16T14:48:01.805Z,49.37
2018-12-16T14:50:29.731Z,42.80
2018-12-16T14:52:57.468Z,47.90
2018-12-16T14:55:25.360Z,46.73
2018-12-16T14:57:54.055Z,48.50
2018-12-16T15:00:22.022Z,40.20
2018-12-16T15:02:49.838Z,46.10
2018-12-16T15:05:17.611Z,49.53
2018-12-16T15:07:45.393Z,40.07
2018-12-16T15:10:13.152Z,48.20
2018-12-16T15:12:40.948Z,46.47
2018-12-16T15:15:08.828Z,49.90
2018-12-16T15:17:42.731Z,44.43
2018-12-16T15:20:07.624Z,49.23
2018-12-16T15:22:35.956Z,47.73
2018-12-16T15:25:04.279Z,45.70
2018-12-16T15:27:32.022Z,52.80
2018-12-16T15:29:59.747Z,41.77
2018-12-16T15:32:27.728Z,51.67
2018-12-16T15:34:55.452Z,57.80
2018-12-16T15:37:23.213Z,55.87
2018-12-16T15:39:51.729Z,55.40
2018-12-16T15:42:20.195Z,48.10
2018-12-16T15:44:47.940Z,44.60
2018-12-16T15:47:15.825Z,54.47
2018-12-16T15:49:43.621Z,49.60
2018-12-16T15:52:12.502Z,56.10
2018-12-16T15:54:40.193Z,57.30
2018-12-16T15:57:07.899Z,48.10
2018-12-16T15:59:35.763Z,43.73
2018-12-16T16:02:03.519Z,44.90
2018-12-16T16:04:31.228Z,54.40
2018-12-16T16:06:58.979Z,45.67
2018-12-16T16:09:26.694Z,54.20
2018-12-16T16:11:54.508Z,48.87
2018-12-16T16:14:22.314Z,49.47
2018-12-16T16:16:50.079Z,43.50
2018-12-16T16:19:17.879Z,44.33
2018-12-16T16:21:45.717Z,38.23
2018-12-16T16:24:13.454Z,35.53
2018-12-16T16:26:41.198Z,48.63
2018-12-16T16:29:08.939Z,46.83
2018-12-16T16:31:36.701Z,38.73
2018-12-16T16:34:04.451Z,43.87
2018-12-16T16:36:32.231Z,43.93
2018-12-16T16:38:59.950Z,45.90
2018-12-16T16:41:27.767Z,44.83
2018-12-16T16:43:55.566Z,46.53
2018-12-16T16:46:23.460Z,48.07
2018-12-16T16:48:51.856Z,42.90
2018-12-16T16:51:19.582Z,43.10
2018-12-16T16:53:47.362Z,42.83
2018-12-16T16:56:15.152Z,39.97
2018-12-16T16:58:42.908Z,39.30
2018-12-16T17:01:10.675Z,44.50
2018-12-16T17:03:38.441Z,44.87
2018-12-16T17:06:06.256Z,46.37
2018-12-16T17:08:34.008Z,47.53
2018-12-16T17:11:01.888Z,46.13
2018-12-16T17:13:29.609Z,45.07
2018-12-16T17:15:57.326Z,47.23
2018-12-16T17:18:25.117Z,45.13
2018-12-16T17:20:53.078Z,43.73
2018-12-16T17:23:20.873Z,44.43
2018-12-16T17:25:48.684Z,50.60
2018-12-16T17:28:16.411Z,46.57
2018-12-16T17:30:44.208Z,49.17
2018-12-16T17:33:15.589Z,47.77
2018-12-16T17:35:45.395Z,54.23
2018-12-16T17:38:13.174Z,51.97
2018-12-16T17:40:40.995Z,46.00
2018-12-16T17:43:09.833Z,51.27
2018-12-16T17:45:38.362Z,48.27
2018-12-16T17:48:06.236Z,46.83
2018-12-16T17:50:34.371Z,50.13
2018-12-16T17:53:02.383Z,55.93
2018-12-16T17:55:30.333Z,48.27
2018-12-16T17:57:58.147Z,40.73
2018-12-16T18:00:26.370Z,49.33
2018-12-16T18:02:54.198Z,48.20
2018-12-16T18:05:21.982Z,40.70
2018-12-16T18:07:49.743Z,40.43
2018-12-16T18:10:17.508Z,39.33
2018-12-16T18:12:45.362Z,44.53
2018-12-16T18:15:13.190Z,47.87
2018-12-16T18:17:41.739Z,44.23
2018-12-16T18:20:09.761Z,42.93
2018-12-16T18:22:38.139Z,43.37
2018-12-16T18:25:06.113Z,40.33
2018-12-16T18:27:33.844Z,40.33
2018-12-16T18:30:01.596Z,44.67
2018-12-16T18:32:29.391Z,43.10
2018-12-16T18:34:57.189Z,41.33
2018-12-16T18:37:24.887Z,38.60
2018-12-16T18:39:52.668Z,42.57
2018-12-16T18:42:20.738Z,34.77
2018-12-16T18:44:48.494Z,39.90
2018-12-16T18:47:16.248Z,40.03
2018-12-16T18:49:43.965Z,38.83
2018-12-16T18:52:11.763Z,39.90
2018-12-16T18:54:39.464Z,35.03
2018-12-16T18:57:07.562Z,36.43
2018-12-16T18:59:35.418Z,30.97
2018-12-16T19:02:03.295Z,31.57
2018-12-16T19:04:31.106Z,34.30
2018-12-16T19:06:58.882Z,32.63
2018-12-16T19:09:26.670Z,26.70
2018-12-16T19:11:54.439Z,28.17
2018-12-16T19:14:22.413Z,31.30
2018-12-16T19:16:50.367Z,31.73
2018-12-16T19:19:18.387Z,31.47
2018-12-16T19:21:46.084Z,31.20
2018-12-16T19:24:13.775Z,27.50
2018-12-16T19:26:49.256Z,32.33
2018-12-16T19:29:22.793Z,27.87
2018-12-16T19:31:50.617Z,33.70
2018-12-16T19:34:18.702Z,35.00
2018-12-16T19:36:46.628Z,29.67
2018-12-16T19:39:14.370Z,31.73
2018-12-16T19:41:42.151Z,31.27
2018-12-16T19:44:13.205Z,32.27
2018-12-16T19:46:40.960Z,30.80
2018-12-16T19:49:09.632Z,33.43
2018-12-16T19:51:37.438Z,25.00
2018-12-16T19:54:05.240Z,31.43
2018-12-16T19:56:32.995Z,33.07
2018-12-16T19:59:01.429Z,25.17
2018-12-16T20:01:29.269Z,34.97
2018-12-16T20:04:19.403Z,29.63
2018-12-16T20:06:48.306Z,28.20
2018-12-16T20:09:16.291Z,30.30
2018-12-16T20:11:44.213Z,27.77
2018-12-16T20:14:12.395Z,24.77
2018-12-16T20:16:40.195Z,26.53
2018-12-16T20:19:08.120Z,24.37
2018-12-16T20:21:35.907Z,26.40
2018-12-16T20:24:04.381Z,26.40
2018-12-16T20:26:32.108Z,23.70
2018-12-16T20:28:59.840Z,25.07
2018-12-16T20:31:27.584Z,26.07
2018-12-16T20:33:55.294Z,22.40
2018-12-16T20:36:23.048Z,19.23
2018-12-16T20:38:50.793Z,24.27
2018-12-16T20:41:18.584Z,22.80
2018-12-16T20:43:46.420Z,22.57
2018-12-16T20:46:14.240Z,20.60
2018-12-16T20:48:42.013Z,20.00
2018-12-16T20:51:09.810Z,18.07
2018-12-16T20:53:37.585Z,17.63
2018-12-16T20:56:05.427Z,13.67
2018-12-16T20:58:33.121Z,12.57
2018-12-16T21:01:00.826Z,13.40
2018-12-16T21:03:28.591Z,10.37
2018-12-16T21:05:56.325Z,13.67
2018-12-16T21:08:24.070Z,11.77
2018-12-16T21:10:51.995Z,9.97
2018-12-16T21:13:25.358Z,10.20
2018-12-16T21:15:58.562Z,9.97
2018-12-16T21:18:28.848Z,12.90
2018-12-16T21:20:56.581Z,14.13
2018-12-16T21:23:25.150Z,12.27
2018-12-16T21:25:53.566Z,11.37
2018-12-16T21:28:21.841Z,14.80
2018-12-16T21:30:54.213Z,13.77
2018-12-16T21:33:21.940Z,12.37
2018-12-16T21:35:49.717Z,13.67
2018-12-16T21:38:17.542Z,13.33
2018-12-16T21:40:45.318Z,11.13
2018-12-16T21:43:13.053Z,13.33
2018-12-16T21:45:40.769Z,15.20
2018-12-16T21:48:08.497Z,15.17
2018-12-16T21:50:36.216Z,15.53
2018-12-16T21:53:03.933Z,17.57
2018-12-16T21:55:31.713Z,13.73
2018-12-16T21:57:59.426Z,18.87
2018-12-16T22:00:27.128Z,16.20
2018-12-16T22:02:54.842Z,16.20
2018-12-16T22:05:31.831Z,17.30
2018-12-16T22:07:59.579Z,18.03
2018-12-16T22:10:27.281Z,22.13
2018-12-16T22:12:54.998Z,26.33
2018-12-16T22:15:22.701Z,21.13
2018-12-16T22:17:50.436Z,20.63
2018-12-16T22:20:18.209Z,23.17
2018-12-16T22:22:46.037Z,25.57
2018-12-16T22:25:13.833Z,21.10
2018-12-16T22:27:41.653Z,21.03
2018-12-16T22:30:09.532Z,21.63
2018-12-16T22:32:37.241Z,25.97
2018-12-16T22:35:05.079Z,24.83
2018-12-16T22:37:33.857Z,25.97
2018-12-16T22:40:01.634Z,26.57
2018-12-16T22:42:29.535Z,29.87
2018-12-16T22:44:57.290Z,29.77
2018-12-16T22:47:25.024Z,30.53
2018-12-16T22:49:52.796Z,26.93
2018-12-16T22:52:20.550Z,24.03
2018-12-16T22:54:48.301Z,25.83
2018-12-16T22:57:16.047Z,38.77
2018-12-16T22:59:43.833Z,27.47
2018-12-16T23:02:11.581Z,29.83
2018-12-16T23:04:39.312Z,32.57
2018-12-16T23:07:07.085Z,31.50
2018-12-16T23:09:34.810Z,25.47
2018-12-16T23:12:02.605Z,28.83
2018-12-16T23:14:30.377Z,33.37
2018-12-16T23:16:58.078Z,28.80
2018-12-16T23:19:25.816Z,27.33
2018-12-16T23:21:53.561Z,32.10
2018-12-16T23:24:21.845Z,30.73
2018-12-16T23:26:49.611Z,35.77
2018-12-16T23:29:17.339Z,31.83
2018-12-16T23:31:45.071Z,38.30
2018-12-16T23:34:12.834Z,33.13
2018-12-16T23:36:40.642Z,36.43
2018-12-16T23:39:10.301Z,28.80
2018-12-16T23:41:38.023Z,31.20
2018-12-16T23:44:05.776Z,32.87
2018-12-16T23:46:33.547Z,28.90
2018-12-16T23:49:01.292Z,31.07
2018-12-16T23:51:29.024Z,29.77
2018-12-16T23:53:56.765Z,31.20
2018-12-16T23:56:24.508Z,28.87
2018-12-16T23:58:52.264Z,26.87
